Time;durP1;ratioP1;P1;durP2;ratioP2;P2;SDS_P1;SDS_P2;PMS_P1;PMS_P2;Temp;Humidity;BMP_temperature;BMP_pressure;BME280_temperature;BME280_humidity;BME280_pressure;Samples;Min_cycle;Max_cycle;Signal;HPM_P1;HPM_P2
2023/07/28 00:00:19;;;;;;;19.63;5.97;;;;;;;20.44;59.09;101323.88;5073436;28;20017;-48
2023/07/28 00:02:45;;;;;;;19.80;5.93;;;;;;;20.16;59.18;101320.38;5070670;28;20105;-48
2023/07/28 00:05:11;;;;;;;18.63;5.00;;;;;;;20.30;59.58;101318.88;5053260;28;20463;-49
2023/07/28 00:07:38;;;;;;;20.58;5.18;;;;;;;20.35;58.51;101328.16;5053500;28;20031;-47
2023/07/28 00:10:04;;;;;;;15.65;4.45;;;;;;;20.40;58.48;101323.56;5035464;28;20021;-50
2023/07/28 00:12:31;;;;;;;16.77;5.40;;;;;;;20.34;58.75;101319.19;5053230;28;20029;-52
2023/07/28 00:14:59;;;;;;;16.63;5.30;;;;;;;20.02;58.95;101319.16;5053402;28;20395;-48
2023/07/28 00:17:25;;;;;;;18.15;5.50;;;;;;;19.43;60.61;101298.16;5052311;28;20522;-50
2023/07/28 00:19:51;;;;;;;15.20;5.55;;;;;;;19.63;61.34;101322.00;5033299;28;20041;-48
2023/07/28 00:22:17;;;;;;;20.27;5.18;;;;;;;19.60;61.24;101314.41;5033247;28;20083;-49
2023/07/28 00:24:43;;;;;;;17.85;5.90;;;;;;;19.73;61.34;101302.31;5033238;28;20021;-47
2023/07/28 00:27:10;;;;;;;16.17;5.85;;;;;;;19.75;60.48;101319.97;5032567;28;20035;-49
2023/07/28 00:29:36;;;;;;;18.85;5.55;;;;;;;19.21;61.84;101319.03;5033198;28;20060;-51
2023/07/28 00:32:02;;;;;;;18.85;5.95;;;;;;;19.26;62.41;101314.47;5014966;28;20029;-50
2023/07/28 00:34:28;;;;;;;18.75;6.20;;;;;;;18.96;63.21;101311.38;5052090;28;20032;-52
2023/07/28 00:36:55;;;;;;;18.02;5.65;;;;;;;19.01;63.47;101314.16;5046562;28;20086;-51
2023/07/28 00:39:21;;;;;;;19.35;6.13;;;;;;;19.25;63.64;101309.31;5052685;28;20017;-51
2023/07/28 00:41:47;;;;;;;20.92;6.07;;;;;;;18.77;64.14;101304.56;5043541;28;20083;-53
2023/07/28 00:44:16;;;;;;;17.05;5.20;;;;;;;18.85;64.00;101298.75;5052726;28;20017;-52
2023/07/28 00:46:42;;;;;;;15.55;5.72;;;;;;;18.62;64.91;101311.41;5049669;28;20020;-51
2023/07/28 00:49:09;;;;;;;15.20;4.93;;;;;;;18.30;65.48;101303.03;5042579;28;20021;-53
2023/07/28 00:51:37;;;;;;;17.42;5.95;;;;;;;18.18;66.32;101292.28;5019661;28;20463;-46
2023/07/28 00:54:05;;;;;;;19.65;5.10;;;;;;;18.28;66.16;101290.81;5052327;28;20116;-46
2023/07/28 00:56:31;;;;;;;18.23;5.57;;;;;;;18.29;65.76;101289.72;5052174;28;20028;-47
2023/07/28 00:58:58;;;;;;;19.52;6.93;;;;;;;18.35;66.18;101292.28;5049601;28;20111;-46
2023/07/28 01:01:24;;;;;;;90.55;11.48;;;;;;;18.52;66.01;101286.84;5052107;28;20029;-46
2023/07/28 01:03:51;;;;;;;19.50;5.60;;;;;;;18.54;65.94;101287.41;5064207;28;20044;-47
2023/07/28 01:06:39;;;;;;;17.08;5.63;;;;;;;18.81;65.19;101284.84;5058341;28;20509;-49
2023/07/28 01:09:11;;;;;;;18.27;5.07;;;;;;;18.77;64.34;101293.72;5072447;28;20048;-46
2023/07/28 01:11:37;;;;;;;18.77;5.07;;;;;;;18.37;65.79;101278.47;5072446;28;20123;-47
2023/07/28 01:14:03;;;;;;;18.23;5.20;;;;;;;18.23;66.95;101291.53;5072698;28;20081;-46
2023/07/28 01:16:30;;;;;;;16.65;5.25;;;;;;;18.25;66.51;101289.38;5054249;28;20054;-47
2023/07/28 01:18:56;;;;;;;18.60;5.70;;;;;;;18.05;67.32;101270.94;5072801;28;20024;-49
2023/07/28 01:21:28;;;;;;;14.98;5.82;;;;;;;18.04;67.79;101282.00;5072425;28;20025;-47
2023/07/28 01:24:36;;;;;;;16.73;5.55;;;;;;;18.14;66.81;101282.97;5072532;28;20032;-45
2023/07/28 01:27:03;;;;;;;22.65;5.15;;;;;;;18.05;66.81;101275.53;5023382;28;20120;-48
2023/07/28 01:29:30;;;;;;;18.95;5.25;;;;;;;17.87;68.28;101292.78;5052184;28;20027;-48
2023/07/28 01:32:00;;;;;;;19.80;5.68;;;;;;;18.02;67.22;101279.53;5067013;28;20040;-48
2023/07/28 01:34:26;;;;;;;15.98;5.32;;;;;;;18.05;67.74;101276.34;5072101;28;20033;-49
2023/07/28 01:36:52;;;;;;;14.75;5.25;;;;;;;17.90;67.74;101276.06;5069822;28;20021;-49
2023/07/28 01:39:18;;;;;;;16.52;5.05;;;;;;;18.16;67.41;101275.44;5060743;28;20471;-48
2023/07/28 01:41:45;;;;;;;17.63;5.78;;;;;;;18.22;66.86;101273.66;5071681;28;20040;-47
2023/07/28 01:44:11;;;;;;;12.90;5.65;;;;;;;18.15;66.27;101271.06;5068291;28;20057;-47
2023/07/28 01:46:39;;;;;;;18.00;5.65;;;;;;;17.93;67.63;101283.69;5071423;28;20526;-49
2023/07/28 01:49:05;;;;;;;14.45;5.32;;;;;;;18.06;67.51;101274.47;5071719;28;20047;-46
2023/07/28 01:51:34;;;;;;;19.85;5.43;;;;;;;17.83;67.74;101283.53;5071191;28;20057;-49
2023/07/28 01:54:01;;;;;;;14.52;4.85;;;;;;;17.82;67.70;101269.19;5071678;28;20025;-46
2023/07/28 01:56:27;;;;;;;17.73;5.05;;;;;;;17.91;67.71;101266.88;5068277;28;20029;-49
2023/07/28 01:58:53;;;;;;;16.70;6.22;;;;;;;17.83;68.12;101270.00;5054173;28;20021;-48
2023/07/28 02:01:20;;;;;;;16.83;6.10;;;;;;;17.74;68.38;101266.03;5069117;28;20115;-45
2023/07/28 02:03:46;;;;;;;21.17;5.53;;;;;;;17.40;69.37;101271.31;5051123;28;20053;-49
2023/07/28 02:06:13;;;;;;;15.50;5.68;;;;;;;17.61;69.11;101262.53;5051189;28;20107;-49
2023/07/28 02:08:39;;;;;;;19.45;5.78;;;;;;;17.85;68.33;101251.59;5051251;28;20017;-47
2023/07/28 02:11:05;;;;;;;17.83;5.57;;;;;;;17.98;67.56;101264.00;5034207;28;20025;-47
2023/07/28 02:13:32;;;;;;;21.55;5.63;;;;;;;18.12;66.95;101266.16;5051123;28;20035;-48
2023/07/28 02:15:58;;;;;;;12.88;4.35;;;;;;;18.30;65.65;101254.25;5051268;28;20387;-47
2023/07/28 02:18:24;;;;;;;21.08;5.78;;;;;;;18.44;65.30;101255.56;5051303;28;20459;-49
2023/07/28 02:20:51;;;;;;;17.50;4.78;;;;;;;18.18;66.13;101261.66;5051413;28;20028;-50
2023/07/28 02:23:17;;;;;;;17.17;5.75;;;;;;;17.87;66.94;101265.72;5051329;28;20029;-48
2023/07/28 02:25:43;;;;;;;17.60;5.18;;;;;;;18.26;65.67;101274.78;5050639;28;20502;-47
2023/07/28 02:28:11;;;;;;;21.25;5.80;;;;;;;18.31;65.39;101272.16;5050971;28;20029;-46
2023/07/28 02:30:38;;;;;;;20.55;5.75;;;;;;;18.19;65.99;101272.22;5060626;28;20032;-48
2023/07/28 02:33:04;;;;;;;16.75;5.68;;;;;;;18.00;66.67;101278.97;5070450;28;20094;-44
2023/07/28 02:35:32;;;;;;;13.77;5.47;;;;;;;18.01;66.96;101294.16;5052801;28;20025;-44
2023/07/28 02:37:58;;;;;;;18.20;5.93;;;;;;;17.95;66.79;101295.13;5070829;28;20032;-45
2023/07/28 02:40:24;;;;;;;15.95;4.93;;;;;;;17.56;68.86;101286.78;5071216;28;20024;-49
2023/07/28 02:42:52;;;;;;;17.08;5.85;;;;;;;17.25;69.98;101287.25;5059865;28;20036;-46
2023/07/28 02:45:19;;;;;;;19.50;5.85;;;;;;;17.09;70.59;101284.22;5050498;28;20025;-45
2023/07/28 02:47:46;;;;;;;26.33;5.95;;;;;;;16.83;72.07;101272.03;5052906;28;20017;-48
2023/07/28 02:50:12;;;;;;;20.08;6.15;;;;;;;16.60;73.04;101277.41;5070761;28;20025;-46
2023/07/28 02:52:38;;;;;;;23.58;6.50;;;;;;;16.31;74.39;101290.78;5070837;28;20067;-49
2023/07/28 02:55:05;;;;;;;25.33;6.57;;;;;;;16.33;74.38;101280.59;5070419;28;20480;-46
2023/07/28 02:57:31;;;;;;;17.27;5.32;;;;;;;16.33;74.25;101288.69;5071462;28;20043;-48
2023/07/28 02:59:58;;;;;;;18.75;6.30;;;;;;;16.06;75.59;101287.47;5074207;28;20774;-46
2023/07/28 03:02:24;;;;;;;22.20;5.93;;;;;;;15.99;75.74;101294.81;5074374;28;20032;-45
2023/07/28 03:04:50;;;;;;;17.85;5.78;;;;;;;15.88;76.21;101280.28;5074127;28;20050;-48
2023/07/28 03:07:17;;;;;;;20.42;6.05;;;;;;;15.72;77.01;101291.72;5073896;28;20024;-49
2023/07/28 03:09:43;;;;;;;20.20;6.40;;;;;;;15.69;77.24;101287.59;5073910;28;20024;-45
2023/07/28 03:12:10;;;;;;;22.15;7.22;;;;;;;15.55;78.05;101291.50;5074030;28;20033;-49
2023/07/28 03:14:36;;;;;;;18.85;5.40;;;;;;;15.50;79.03;101284.09;5074475;28;20035;-49
2023/07/28 03:17:02;;;;;;;21.80;6.43;;;;;;;15.36;79.65;101293.38;5073769;28;20032;-46
2023/07/28 03:19:29;;;;;;;20.42;7.40;;;;;;;15.30;80.08;101295.09;5074074;28;20496;-48
2023/07/28 03:21:55;;;;;;;23.92;6.82;;;;;;;15.20;80.44;101304.78;5074127;28;20374;-48
2023/07/28 03:24:21;;;;;;;22.70;6.45;;;;;;;15.25;80.36;101311.13;5073756;28;20021;-47
2023/07/28 03:26:47;;;;;;;16.15;6.15;;;;;;;15.14;81.21;101297.59;5073911;28;20382;-47
2023/07/28 03:29:14;;;;;;;22.27;7.28;;;;;;;15.15;80.92;101304.63;5074042;28;20490;-47
2023/07/28 03:31:40;;;;;;;18.58;6.32;;;;;;;15.14;81.22;101308.38;5073449;28;20490;-48
2023/07/28 03:34:06;;;;;;;19.25;7.38;;;;;;;15.10;81.12;101308.00;5073937;28;20056;-46
2023/07/28 03:36:32;;;;;;;17.48;6.57;;;;;;;15.11;81.11;101298.88;5073770;28;20021;-49
2023/07/28 03:38:59;;;;;;;24.55;7.60;;;;;;;15.07;81.13;101296.84;5073683;28;20536;-45
2023/07/28 03:41:25;;;;;;;19.20;6.50;;;;;;;15.09;81.74;101305.53;5073952;28;20122;-47
2023/07/28 03:43:51;;;;;;;24.52;6.55;;;;;;;15.11;81.77;101306.16;5073721;28;20025;-47
2023/07/28 03:46:18;;;;;;;21.30;7.10;;;;;;;15.03;81.50;101304.56;5073130;28;20089;-48
2023/07/28 03:48:44;;;;;;;19.60;6.50;;;;;;;15.11;81.25;101306.16;5073053;28;20104;-48
2023/07/28 03:51:10;;;;;;;20.75;6.78;;;;;;;15.10;81.01;101307.16;5070004;28;20037;-50
2023/07/28 03:53:36;;;;;;;22.92;6.78;;;;;;;15.10;81.19;101302.59;5053923;28;20044;-49
2023/07/28 03:56:03;;;;;;;19.25;6.47;;;;;;;15.00;81.45;101300.44;5071896;28;20483;-46
2023/07/28 03:58:29;;;;;;;21.17;7.28;;;;;;;14.96;81.63;101304.63;5072146;28;20021;-47
2023/07/28 04:00:56;;;;;;;22.90;7.40;;;;;;;14.94;82.40;101311.31;5073573;28;20047;-47
2023/07/28 04:03:22;;;;;;;15.70;6.35;;;;;;;14.99;81.88;101306.03;5065733;28;20045;-47
2023/07/28 04:05:48;;;;;;;26.63;7.30;;;;;;;14.85;82.88;101316.16;5073251;28;20029;-48
2023/07/28 04:08:15;;;;;;;22.40;7.55;;;;;;;14.87;82.86;101311.34;5073166;28;20025;-50
2023/07/28 04:10:41;;;;;;;16.92;7.20;;;;;;;14.71;84.01;101318.16;5072862;28;20021;-46
2023/07/28 04:13:08;;;;;;;19.90;7.35;;;;;;;14.69;84.14;101322.09;5073389;28;20538;-46
2023/07/28 04:15:34;;;;;;;21.90;6.68;;;;;;;14.68;84.29;101326.66;5067221;28;20544;-47
2023/07/28 04:18:00;;;;;;;20.35;6.38;;;;;;;14.76;84.09;101330.94;5073763;28;20372;-47
2023/07/28 04:20:26;;;;;;;19.00;6.93;;;;;;;14.76;84.14;101328.25;5073504;28;20048;-47
2023/07/28 04:22:53;;;;;;;23.77;7.63;;;;;;;14.74;84.30;101336.56;5073369;28;20024;-49
2023/07/28 04:25:19;;;;;;;24.95;6.72;;;;;;;14.72;84.26;101341.34;5073034;28;20340;-47
2023/07/28 04:27:45;;;;;;;27.67;8.00;;;;;;;14.66;84.45;101341.41;5073315;28;20103;-46
2023/07/28 04:30:12;;;;;;;17.67;6.35;;;;;;;14.53;85.32;101345.84;5073108;28;20025;-47
2023/07/28 04:32:38;;;;;;;22.73;7.63;;;;;;;14.56;85.32;101343.78;5073028;28;20037;-45
2023/07/28 04:35:05;;;;;;;19.70;6.93;;;;;;;14.60;85.27;101342.28;5055092;28;20025;-46
2023/07/28 04:37:32;;;;;;;21.15;7.15;;;;;;;14.54;85.96;101343.97;5047849;28;20021;-47
2023/07/28 04:39:58;;;;;;;20.98;7.40;;;;;;;14.50;85.84;101349.00;5052320;28;20392;-47
2023/07/28 04:42:24;;;;;;;25.35;7.63;;;;;;;14.51;86.07;101366.00;5034807;28;20474;-46
2023/07/28 04:44:51;;;;;;;24.40;7.47;;;;;;;14.32;87.41;101362.34;5068934;28;20039;-47
2023/07/28 04:47:17;;;;;;;19.13;7.70;;;;;;;14.44;86.75;101367.88;5072437;28;20032;-45
2023/07/28 04:49:43;;;;;;;21.33;6.97;;;;;;;14.37;86.90;101373.28;5072180;28;20539;-44
2023/07/28 04:52:10;;;;;;;22.83;7.30;;;;;;;14.30;87.48;101374.41;5072320;28;20085;-44
2023/07/28 04:54:36;;;;;;;19.50;7.68;;;;;;;14.23;88.11;101369.06;5072152;28;20024;-45
2023/07/28 04:57:02;;;;;;;23.80;7.32;;;;;;;14.28;87.70;101363.84;5071755;28;20024;-49
2023/07/28 04:59:28;;;;;;;30.13;8.90;;;;;;;14.23;88.09;101369.06;5072158;28;20048;-45
2023/07/28 05:01:55;;;;;;;25.55;8.02;;;;;;;14.14;88.66;101370.34;5072203;28;20032;-45
2023/07/28 05:04:21;;;;;;;25.10;7.68;;;;;;;14.18;88.67;101369.69;5071992;28;20048;-45
2023/07/28 05:06:47;;;;;;;23.77;7.72;;;;;;;14.19;89.02;101373.22;5071810;28;20054;-46
2023/07/28 05:09:13;;;;;;;27.02;7.70;;;;;;;14.19;88.68;101363.28;5072188;28;20112;-45
2023/07/28 05:11:40;;;;;;;26.70;7.25;;;;;;;14.24;88.27;101368.00;5072083;28;20029;-45
2023/07/28 05:14:08;;;;;;;24.98;7.20;;;;;;;14.12;89.25;101373.25;5054259;28;20028;-46
2023/07/28 05:16:35;;;;;;;28.55;8.43;;;;;;;14.07;89.50;101374.94;5069551;28;20029;-47
2023/07/28 05:19:01;;;;;;;21.85;7.28;;;;;;;14.17;89.04;101380.69;5071976;28;20081;-45
2023/07/28 05:21:28;;;;;;;22.60;7.47;;;;;;;14.12;89.30;101377.81;5071267;28;20089;-45
2023/07/28 05:23:54;;;;;;;23.80;7.43;;;;;;;14.21;89.26;101380.06;5071692;28;20040;-47
2023/07/28 05:26:21;;;;;;;17.30;7.13;;;;;;;14.13;89.67;101385.69;5071475;28;20363;-45
2023/07/28 05:28:47;;;;;;;25.13;8.00;;;;;;;14.12;89.70;101385.91;5071755;28;20379;-49
2023/07/28 05:31:15;;;;;;;39.38;9.25;;;;;;;14.03;90.40;101388.00;5071634;28;20524;-48
2023/07/28 05:33:41;;;;;;;18.85;6.90;;;;;;;14.06;90.43;101386.78;5070943;28;20390;-47
2023/07/28 05:36:07;;;;;;;26.02;7.07;;;;;;;14.14;90.15;101389.19;5071359;28;20028;-47
2023/07/28 05:38:34;;;;;;;24.15;8.30;;;;;;;14.02;91.17;101388.22;5070610;28;20039;-46
2023/07/28 05:41:06;;;;;;;21.92;8.18;;;;;;;14.09;90.70;101392.53;5070636;28;20029;-49
2023/07/28 05:43:33;;;;;;;25.90;6.55;;;;;;;14.15;91.03;101398.91;5071684;28;20061;-46
2023/07/28 05:46:00;;;;;;;20.38;7.53;;;;;;;14.07;90.90;101396.50;5053525;28;20104;-47
2023/07/28 05:48:27;;;;;;;24.92;7.75;;;;;;;14.10;90.38;101382.59;5071523;28;20033;-48
2023/07/28 05:50:53;;;;;;;20.25;6.78;;;;;;;14.11;90.09;101392.34;5071581;28;20025;-48
2023/07/28 05:53:23;;;;;;;29.05;8.45;;;;;;;14.13;90.23;101393.75;5071579;28;20028;-47
2023/07/28 05:55:49;;;;;;;21.45;7.47;;;;;;;14.14;90.21;101392.72;5071200;28;20151;-48
2023/07/28 05:58:15;;;;;;;24.38;7.57;;;;;;;14.20;89.44;101396.41;5071440;28;20033;-48
2023/07/28 06:00:42;;;;;;;20.23;6.20;;;;;;;14.07;90.79;101391.94;5071267;28;20031;-49
2023/07/28 06:03:11;;;;;;;24.05;7.63;;;;;;;14.06;91.15;101389.47;5071142;28;20130;-48
2023/07/28 06:05:41;;;;;;;28.75;7.85;;;;;;;14.07;90.51;101386.53;5071233;28;20021;-47
2023/07/28 06:08:08;;;;;;;25.88;7.97;;;;;;;14.03;90.37;101384.50;5071659;28;20020;-50
2023/07/28 06:10:35;;;;;;;23.63;7.13;;;;;;;13.96;90.85;101382.66;5071426;28;20457;-48
2023/07/28 06:13:01;;;;;;;23.80;6.90;;;;;;;13.96;90.62;101379.16;5071299;28;20423;-46
2023/07/28 06:15:27;;;;;;;24.50;8.02;;;;;;;13.95;90.73;101378.31;5071296;28;20024;-48
2023/07/28 06:17:54;;;;;;;21.58;7.72;;;;;;;13.86;91.55;101373.41;5071459;28;20024;-46
2023/07/28 06:20:20;;;;;;;24.90;7.97;;;;;;;13.89;91.48;101378.38;5071210;28;20082;-47
2023/07/28 06:22:46;;;;;;;23.90;7.53;;;;;;;13.86;91.29;101371.53;5070815;28;20025;-46
2023/07/28 06:25:12;;;;;;;26.83;8.32;;;;;;;13.83;91.49;101377.34;5064485;28;20031;-45
2023/07/28 06:27:39;;;;;;;19.67;7.13;;;;;;;13.77;91.58;101371.97;5051248;28;20021;-46
2023/07/28 06:30:05;;;;;;;21.63;7.75;;;;;;;13.80;91.31;101371.56;5064204;28;20647;-46
2023/07/28 06:32:32;;;;;;;18.95;7.45;;;;;;;13.79;91.46;101368.06;5071778;28;20833;-47
2023/07/28 06:34:58;;;;;;;23.73;7.97;;;;;;;13.76;91.21;101368.47;5074900;28;20028;-46
2023/07/28 06:37:25;;;;;;;28.25;7.72;;;;;;;13.71;91.49;101363.75;5074986;28;20028;-46
2023/07/28 06:39:51;;;;;;;26.75;8.27;;;;;;;13.68;91.77;101371.41;5056950;28;20051;-48
2023/07/28 06:42:23;;;;;;;31.33;8.45;;;;;;;13.69;91.57;101371.19;5073574;28;20033;-46
2023/07/28 06:44:51;;;;;;;22.73;7.35;;;;;;;13.66;91.88;101376.19;5073826;28;20021;-46
2023/07/28 06:47:18;;;;;;;21.40;7.70;;;;;;;13.60;92.17;101382.41;5074838;28;20024;-46
2023/07/28 06:49:44;;;;;;;28.45;7.65;;;;;;;13.54;92.67;101388.63;5074667;28;20493;-47
2023/07/28 06:52:11;;;;;;;24.13;8.00;;;;;;;13.53;92.95;101389.69;5074782;28;20035;-46
2023/07/28 06:54:37;;;;;;;24.83;8.00;;;;;;;13.51;93.36;101392.59;5074519;28;20500;-46
2023/07/28 06:57:04;;;;;;;25.75;7.05;;;;;;;13.60;92.59;101379.72;5074629;28;20020;-46
2023/07/28 06:59:30;;;;;;;22.30;7.47;;;;;;;13.58;93.37;101392.56;5074554;28;20031;-46
2023/07/28 07:01:57;;;;;;;26.60;8.63;;;;;;;13.62;93.08;101404.56;5074250;28;20044;-47
2023/07/28 07:04:23;;;;;;;22.10;8.10;;;;;;;13.59;93.66;101399.59;5074135;28;20047;-46
2023/07/28 07:06:49;;;;;;;25.45;7.60;;;;;;;13.65;93.42;101399.56;5074158;28;20020;-50
2023/07/28 07:09:15;;;;;;;22.30;7.90;;;;;;;13.58;94.11;101393.38;5073754;28;20358;-47
2023/07/28 07:11:41;;;;;;;30.77;8.18;;;;;;;13.57;94.55;101393.59;5066934;28;20109;-47
2023/07/28 07:14:08;;;;;;;34.67;8.95;;;;;;;13.59;93.75;101396.91;5054428;28;20029;-50
2023/07/28 07:16:35;;;;;;;20.17;7.78;;;;;;;13.61;93.31;101392.16;5067801;28;20020;-48
2023/07/28 07:19:01;;;;;;;26.15;8.55;;;;;;;13.57;93.44;101390.91;5074566;28;20860;-45
2023/07/28 07:21:30;;;;;;;26.20;7.68;;;;;;;13.57;93.37;101388.22;5074246;28;20060;-47
2023/07/28 07:23:56;;;;;;;22.08;7.70;;;;;;;13.55;93.19;101387.59;5073960;28;20036;-47
2023/07/28 07:26:23;;;;;;;27.90;7.75;;;;;;;13.48;93.42;101387.63;5073644;28;20074;-46
2023/07/28 07:28:49;;;;;;;28.00;7.65;;;;;;;13.50;93.66;101382.06;5074150;28;20475;-45
2023/07/28 07:31:15;;;;;;;25.42;8.18;;;;;;;13.56;93.60;101381.19;5073780;28;20395;-48
2023/07/28 07:33:42;;;;;;;27.02;8.45;;;;;;;13.60;93.25;101380.56;5073787;28;20021;-45
2023/07/28 07:36:19;;;;;;;23.77;7.57;;;;;;;13.57;93.67;101380.97;5073599;28;20021;-48
2023/07/28 07:38:46;;;;;;;22.17;7.47;;;;;;;13.53;93.83;101374.38;5072696;28;20035;-45
2023/07/28 07:41:15;;;;;;;25.80;8.48;;;;;;;13.52;94.41;101383.47;5079511;23;20469;-45
2023/07/28 07:43:42;;;;;;;21.02;7.53;;;;;;;13.60;94.13;101382.41;5072492;28;20081;-46
2023/07/28 07:46:08;;;;;;;24.65;8.18;;;;;;;13.51;94.34;101375.63;5072110;28;20463;-49
2023/07/28 07:48:35;;;;;;;21.05;7.63;;;;;;;13.55;93.77;101371.44;5058699;28;20079;-45
2023/07/28 07:51:01;;;;;;;19.77;7.75;;;;;;;13.46;93.84;101371.69;5069954;28;20060;-46
2023/07/28 07:53:27;;;;;;;29.90;8.15;;;;;;;13.47;94.46;101375.22;5072311;28;20493;-45
2023/07/28 07:55:53;;;;;;;27.42;8.65;;;;;;;13.47;94.82;101376.03;5073185;28;20106;-49
2023/07/28 07:58:20;;;;;;;26.98;7.85;;;;;;;13.48;95.09;101376.84;5070225;28;20027;-48
2023/07/28 08:00:46;;;;;;;35.20;9.32;;;;;;;13.52;95.02;101377.28;5071294;28;20078;-45
2023/07/28 08:03:12;;;;;;;23.88;8.27;;;;;;;13.51;94.37;101367.56;5072202;28;20028;-48
2023/07/28 08:05:39;;;;;;;20.60;7.95;;;;;;;13.57;94.54;101369.41;5072040;28;20036;-47
2023/07/28 08:08:07;;;;;;;29.30;8.38;;;;;;;13.53;94.52;101370.84;5071512;28;20024;-47
2023/07/28 08:10:34;;;;;;;26.83;8.48;;;;;;;13.54;94.63;101369.81;5070838;28;20056;-49
2023/07/28 08:13:00;;;;;;;23.00;8.43;;;;;;;13.58;94.34;101371.03;5071839;28;20036;-45
2023/07/28 08:15:27;;;;;;;22.33;7.47;;;;;;;13.58;94.39;101365.66;5071530;28;20094;-49
2023/07/28 08:17:53;;;;;;;26.33;8.43;;;;;;;13.53;94.60;101368.16;5072353;28;20059;-46
2023/07/28 08:20:19;;;;;;;26.88;7.70;;;;;;;13.48;94.86;101361.53;5072202;28;20536;-48
2023/07/28 08:22:46;;;;;;;24.95;7.93;;;;;;;13.45;94.27;101358.47;5071931;28;20056;-46
2023/07/28 08:25:12;;;;;;;22.17;8.25;;;;;;;13.42;94.50;101361.56;5072730;28;20024;-45
2023/07/28 08:27:38;;;;;;;20.90;8.13;;;;;;;13.42;94.80;101357.03;5070698;28;20039;-47
2023/07/28 08:30:05;;;;;;;24.85;8.18;;;;;;;13.33;95.48;101352.13;5071303;28;20063;-46
2023/07/28 08:32:32;;;;;;;20.40;8.45;;;;;;;13.42;95.10;101350.81;5069909;28;20485;-47
2023/07/28 08:34:58;;;;;;;25.48;8.18;;;;;;;13.44;94.63;101354.97;5071305;28;20028;-48
2023/07/28 08:37:24;;;;;;;24.88;7.15;;;;;;;13.37;94.50;101346.06;5071936;28;20012;-46
2023/07/28 08:39:51;;;;;;;20.15;8.23;;;;;;;13.40;94.88;101347.53;5072854;28;20546;-46
2023/07/28 08:42:17;;;;;;;28.95;9.13;;;;;;;13.31;95.37;101352.31;5070466;28;20102;-46
2023/07/28 08:44:45;;;;;;;27.88;7.93;;;;;;;13.39;95.28;101353.94;5071680;28;20033;-45
2023/07/28 08:47:12;;;;;;;29.10;8.93;;;;;;;13.48;94.82;101355.34;5071379;28;20028;-45
2023/07/28 08:49:38;;;;;;;22.88;8.35;;;;;;;13.44;95.05;101354.97;5071744;28;20422;-47
2023/07/28 08:52:05;;;;;;;29.63;7.43;;;;;;;13.48;94.90;101355.34;5072095;28;20052;-45
2023/07/28 08:54:31;;;;;;;35.63;8.60;;;;;;;13.43;95.05;101342.53;5070490;28;20112;-45
2023/07/28 08:56:58;;;;;;;18.77;8.05;;;;;;;13.37;94.99;101351.44;5070957;28;20017;-47
2023/07/28 08:59:27;;;;;;;21.63;8.73;;;;;;;13.26;95.82;101352.09;5070079;28;20067;-45
2023/07/28 09:01:55;;;;;;;28.08;8.25;;;;;;;13.33;95.78;101360.19;5054668;28;20028;-49
2023/07/28 09:04:22;;;;;;;22.27;7.80;;;;;;;13.35;95.09;101345.47;5071532;28;20028;-44
2023/07/28 09:06:50;;;;;;;27.77;7.95;;;;;;;13.33;94.81;101331.44;5072039;28;20024;-48
2023/07/28 09:09:17;;;;;;;26.73;8.05;;;;;;;13.35;95.34;101333.91;5072177;28;20106;-46
2023/07/28 09:11:46;;;;;;;32.03;8.77;;;;;;;13.27;96.54;101334.97;5071416;28;20024;-48
2023/07/28 09:14:13;;;;;;;20.95;8.48;;;;;;;13.34;96.29;101330.38;5070541;28;20471;-46
2023/07/28 09:16:39;;;;;;;26.00;8.88;;;;;;;13.31;95.84;101333.47;5072324;28;20025;-47
2023/07/28 09:19:07;;;;;;;24.30;8.43;;;;;;;13.30;95.51;101323.78;5071409;28;20025;-47
2023/07/28 09:21:34;;;;;;;25.05;8.40;;;;;;;13.15;95.79;101334.72;5071125;28;20090;-47
2023/07/28 09:24:05;;;;;;;29.63;8.35;;;;;;;13.09;97.07;101313.25;5070983;28;20471;-45
2023/07/28 09:26:42;;;;;;;31.70;9.68;;;;;;;13.16;96.90;101324.84;5070758;28;20089;-46
2023/07/28 09:29:19;;;;;;;26.33;8.57;;;;;;;13.18;96.87;101317.38;5069400;28;20386;-45
2023/07/28 09:31:47;;;;;;;35.67;9.73;;;;;;;13.17;96.78;101321.09;5068100;28;20116;-46
2023/07/28 09:34:27;;;;;;;29.92;9.65;;;;;;;13.15;96.97;101325.84;5069208;28;20039;-46
2023/07/28 09:37:00;;;;;;;25.10;8.60;;;;;;;13.11;97.28;101320.09;5072601;23;20132;-46
2023/07/28 09:39:27;;;;;;;35.83;9.95;;;;;;;13.10;97.66;101317.59;5070718;28;20029;-46
2023/07/28 09:41:58;;;;;;;20.58;8.27;;;;;;;13.27;96.90;101315.28;5071540;28;20100;-47
2023/07/28 09:44:24;;;;;;;28.80;9.18;;;;;;;13.26;97.38;101306.41;5069512;28;20082;-46
2023/07/28 09:46:57;;;;;;;19.13;7.82;;;;;;;13.18;96.75;101317.38;5070631;28;20032;-47
2023/07/28 09:49:37;;;;;;;24.40;8.70;;;;;;;13.09;97.23;101315.94;5069866;28;20024;-48
2023/07/28 09:52:10;;;;;;;35.05;9.13;;;;;;;13.14;97.43;101318.81;5051587;28;20075;-45
2023/07/28 09:54:48;;;;;;;28.95;8.85;;;;;;;13.18;97.59;101312.00;5068634;28;20574;-46
2023/07/28 09:57:19;;;;;;;30.45;8.75;;;;;;;13.21;96.96;101319.66;5069734;28;20486;-46
2023/07/28 09:59:48;;;;;;;18.55;7.95;;;;;;;13.17;97.32;101311.19;5068697;28;20028;-46
2023/07/28 10:02:14;;;;;;;24.33;9.05;;;;;;;13.25;97.23;101310.13;5069918;28;20089;-45
2023/07/28 10:04:41;;;;;;;26.25;8.60;;;;;;;13.38;96.87;101306.56;5070035;28;20082;-45
2023/07/28 10:07:09;;;;;;;23.60;7.35;;;;;;;13.34;97.02;101303.50;5071489;28;20052;-46
2023/07/28 10:09:37;;;;;;;20.02;7.68;;;;;;;13.45;96.63;101297.44;5072691;28;20040;-47
2023/07/28 10:12:03;;;;;;;26.88;8.60;;;;;;;13.45;97.42;101312.75;5072403;28;20025;-46
2023/07/28 10:14:37;;;;;;;25.23;9.05;;;;;;;13.35;98.19;101307.81;5074336;28;20029;-47
2023/07/28 10:17:05;;;;;;;22.42;7.88;;;;;;;13.51;96.63;101311.09;5075502;28;20032;-45
2023/07/28 10:19:36;;;;;;;23.85;7.88;;;;;;;13.54;95.73;101308.78;5056540;28;20028;-46
2023/07/28 10:22:12;;;;;;;24.58;8.50;;;;;;;13.53;95.68;101314.38;5073445;28;20517;-45
2023/07/28 10:24:52;;;;;;;22.25;7.45;;;;;;;13.53;95.03;101315.19;5074532;28;20033;-48
2023/07/28 10:27:38;;;;;;;25.42;8.38;;;;;;;13.46;94.62;101320.59;5070558;28;20027;-45
2023/07/28 10:30:14;;;;;;;29.60;8.30;;;;;;;13.36;94.32;101319.41;5073217;28;20074;-47
2023/07/28 10:32:44;;;;;;;25.98;7.93;;;;;;;13.33;94.83;101326.06;5068947;28;20064;-45
2023/07/28 10:35:16;;;;;;;22.23;7.93;;;;;;;13.41;94.68;101328.47;5073046;28;20039;-44
2023/07/28 10:37:46;;;;;;;25.05;7.97;;;;;;;13.39;94.96;101317.13;5071579;28;20033;-47
2023/07/28 10:40:35;;;;;;;18.48;7.75;;;;;;;13.42;95.55;101319.38;5074118;28;20043;-45
2023/07/28 10:43:04;;;;;;;22.90;8.15;;;;;;;13.51;94.97;101322.66;5074584;28;20390;-46
2023/07/28 10:45:33;;;;;;;35.80;8.40;;;;;;;13.48;94.22;101318.53;5071810;28;20040;-49
2023/07/28 10:48:00;;;;;;;25.02;7.45;;;;;;;13.32;95.25;101324.38;5074752;28;20013;-45
2023/07/28 10:50:31;;;;;;;25.50;7.25;;;;;;;13.31;95.30;101325.41;5073731;28;20028;-48
2023/07/28 10:52:58;;;;;;;21.55;7.18;;;;;;;13.32;95.02;101324.38;5073740;28;20028;-45
2023/07/28 10:55:26;;;;;;;28.17;8.82;;;;;;;13.31;95.10;101328.09;5072167;28;20035;-47
2023/07/28 10:57:54;;;;;;;32.58;8.77;;;;;;;13.31;95.29;101325.41;5073587;28;20556;-46
2023/07/28 11:00:22;;;;;;;21.25;8.30;;;;;;;13.37;95.54;101326.44;5055620;28;20033;-48
2023/07/28 11:02:51;;;;;;;21.10;8.30;;;;;;;13.35;95.92;101328.53;5074504;28;20147;-49
2023/07/28 11:05:28;;;;;;;29.48;9.30;;;;;;;13.37;96.29;101329.94;5074043;28;20051;-46
2023/07/28 11:07:59;;;;;;;31.67;8.65;;;;;;;13.42;95.58;101329.31;5074418;28;20032;-48
2023/07/28 11:10:29;;;;;;;27.10;7.72;;;;;;;13.34;95.35;101327.69;5074398;28;20028;-48
2023/07/28 11:12:58;;;;;;;30.88;8.68;;;;;;;13.33;94.75;101319.84;5072679;28;20031;-46
2023/07/28 11:15:25;;;;;;;30.45;8.38;;;;;;;13.38;94.25;101322.69;5073163;28;20115;-49
2023/07/28 11:17:53;;;;;;;20.65;7.13;;;;;;;13.22;95.30;101328.56;5073504;28;20025;-47